sensor_id;sensor_type;location;lat;lon;timestamp;P1;durP1;ratioP1;P2;durP2;ratioP2
13441;SDS011;6793;55.662;13.114;2024-01-30T00:01:54;0.80;;;0.80;;
13441;SDS011;6793;55.662;13.114;2024-01-30T00:04:21;0.90;;;0.90;;
13441;SDS011;6793;55.662;13.114;2024-01-30T00:06:48;0.80;;;0.80;;
13441;SDS011;6793;55.662;13.114;2024-01-30T00:09:15;0.80;;;0.80;;
13441;SDS011;6793;55.662;13.114;2024-01-30T00:11:42;0.80;;;0.80;;
13441;SDS011;6793;55.662;13.114;2024-01-30T00:14:11;0.80;;;0.80;;
13441;SDS011;6793;55.662;13.114;2024-01-30T00:16:38;0.80;;;0.80;;
13441;SDS011;6793;55.662;13.114;2024-01-30T00:19:05;0.70;;;0.70;;
13441;SDS011;6793;55.662;13.114;2024-01-30T00:21:33;0.80;;;0.80;;
13441;SDS011;6793;55.662;13.114;2024-01-30T00:24:00;0.70;;;0.70;;
13441;SDS011;6793;55.662;13.114;2024-01-30T00:26:27;0.70;;;0.70;;
13441;SDS011;6793;55.662;13.114;2024-01-30T00:28:54;0.70;;;0.70;;
13441;SDS011;6793;55.662;13.114;2024-01-30T00:31:22;0.70;;;0.70;;
13441;SDS011;6793;55.662;13.114;2024-01-30T00:33:49;0.70;;;0.70;;
13441;SDS011;6793;55.662;13.114;2024-01-30T00:36:17;0.60;;;0.60;;
13441;SDS011;6793;55.662;13.114;2024-01-30T00:38:44;0.70;;;0.70;;
13441;SDS011;6793;55.662;13.114;2024-01-30T00:41:11;0.70;;;0.70;;
13441;SDS011;6793;55.662;13.114;2024-01-30T00:43:38;0.70;;;0.70;;
13441;SDS011;6793;55.662;13.114;2024-01-30T00:46:05;0.70;;;0.70;;
13441;SDS011;6793;55.662;13.114;2024-01-30T00:48:33;0.80;;;0.80;;
13441;SDS011;6793;55.662;13.114;2024-01-30T00:51:00;0.70;;;0.70;;
13441;SDS011;6793;55.662;13.114;2024-01-30T00:53:27;0.70;;;0.70;;
13441;SDS011;6793;55.662;13.114;2024-01-30T00:55:54;0.73;;;0.73;;
13441;SDS011;6793;55.662;13.114;2024-01-30T00:58:21;0.70;;;0.70;;
13441;SDS011;6793;55.662;13.114;2024-01-30T01:00:48;0.60;;;0.60;;
13441;SDS011;6793;55.662;13.114;2024-01-30T01:03:16;0.60;;;0.60;;
13441;SDS011;6793;55.662;13.114;2024-01-30T01:05:44;0.60;;;0.60;;
13441;SDS011;6793;55.662;13.114;2024-01-30T01:08:11;0.60;;;0.60;;
13441;SDS011;6793;55.662;13.114;2024-01-30T01:10:40;0.70;;;0.70;;
13441;SDS011;6793;55.662;13.114;2024-01-30T01:13:07;0.70;;;0.70;;
13441;SDS011;6793;55.662;13.114;2024-01-30T01:15:34;0.70;;;0.70;;
13441;SDS011;6793;55.662;13.114;2024-01-30T01:18:02;0.70;;;0.70;;
13441;SDS011;6793;55.662;13.114;2024-01-30T01:20:29;0.70;;;0.70;;
13441;SDS011;6793;55.662;13.114;2024-01-30T01:22:57;0.70;;;0.70;;
13441;SDS011;6793;55.662;13.114;2024-01-30T01:25:24;0.70;;;0.70;;
13441;SDS011;6793;55.662;13.114;2024-01-30T01:27:51;0.70;;;0.70;;
13441;SDS011;6793;55.662;13.114;2024-01-30T01:30:18;0.70;;;0.70;;
13441;SDS011;6793;55.662;13.114;2024-01-30T01:32:47;0.70;;;0.70;;
13441;SDS011;6793;55.662;13.114;2024-01-30T01:35:19;0.70;;;0.70;;
13441;SDS011;6793;55.662;13.114;2024-01-30T01:37:47;0.80;;;0.80;;
13441;SDS011;6793;55.662;13.114;2024-01-30T01:40:21;0.70;;;0.70;;
13441;SDS011;6793;55.662;13.114;2024-01-30T01:42:49;0.70;;;0.70;;
13441;SDS011;6793;55.662;13.114;2024-01-30T01:45:16;0.63;;;0.63;;
13441;SDS011;6793;55.662;13.114;2024-01-30T01:47:43;0.70;;;0.70;;
13441;SDS011;6793;55.662;13.114;2024-01-30T01:50:11;0.65;;;0.65;;
13441;SDS011;6793;55.662;13.114;2024-01-30T01:52:38;0.70;;;0.70;;
13441;SDS011;6793;55.662;13.114;2024-01-30T01:55:06;0.60;;;0.60;;
13441;SDS011;6793;55.662;13.114;2024-01-30T01:57:34;0.70;;;0.70;;
13441;SDS011;6793;55.662;13.114;2024-01-30T02:00:01;0.65;;;0.65;;
13441;SDS011;6793;55.662;13.114;2024-01-30T02:02:30;0.60;;;0.60;;
13441;SDS011;6793;55.662;13.114;2024-01-30T02:04:57;0.70;;;0.70;;
13441;SDS011;6793;55.662;13.114;2024-01-30T02:07:24;0.70;;;0.70;;
13441;SDS011;6793;55.662;13.114;2024-01-30T02:09:51;0.70;;;0.70;;
13441;SDS011;6793;55.662;13.114;2024-01-30T02:12:18;0.75;;;0.75;;
13441;SDS011;6793;55.662;13.114;2024-01-30T02:14:47;0.70;;;0.70;;
13441;SDS011;6793;55.662;13.114;2024-01-30T02:17:15;0.70;;;0.70;;
13441;SDS011;6793;55.662;13.114;2024-01-30T02:19:43;0.70;;;0.70;;
13441;SDS011;6793;55.662;13.114;2024-01-30T02:22:11;0.60;;;0.60;;
13441;SDS011;6793;55.662;13.114;2024-01-30T02:24:38;0.60;;;0.60;;
13441;SDS011;6793;55.662;13.114;2024-01-30T02:27:05;0.70;;;0.70;;
13441;SDS011;6793;55.662;13.114;2024-01-30T02:29:32;0.70;;;0.70;;
13441;SDS011;6793;55.662;13.114;2024-01-30T02:31:59;0.60;;;0.60;;
13441;SDS011;6793;55.662;13.114;2024-01-30T02:34:26;0.70;;;0.70;;
13441;SDS011;6793;55.662;13.114;2024-01-30T02:36:53;0.70;;;0.70;;
13441;SDS011;6793;55.662;13.114;2024-01-30T02:39:23;0.80;;;0.80;;
13441;SDS011;6793;55.662;13.114;2024-01-30T02:41:50;0.70;;;0.70;;
13441;SDS011;6793;55.662;13.114;2024-01-30T02:44:17;0.70;;;0.70;;
13441;SDS011;6793;55.662;13.114;2024-01-30T02:46:44;0.70;;;0.70;;
13441;SDS011;6793;55.662;13.114;2024-01-30T02:49:11;0.68;;;0.68;;
13441;SDS011;6793;55.662;13.114;2024-01-30T02:51:38;0.70;;;0.70;;
13441;SDS011;6793;55.662;13.114;2024-01-30T02:54:05;0.70;;;0.70;;
13441;SDS011;6793;55.662;13.114;2024-01-30T02:56:34;0.70;;;0.70;;
13441;SDS011;6793;55.662;13.114;2024-01-30T02:59:01;0.70;;;0.70;;
13441;SDS011;6793;55.662;13.114;2024-01-30T03:01:28;0.70;;;0.70;;
13441;SDS011;6793;55.662;13.114;2024-01-30T03:03:56;0.70;;;0.70;;
13441;SDS011;6793;55.662;13.114;2024-01-30T03:06:23;0.60;;;0.60;;
13441;SDS011;6793;55.662;13.114;2024-01-30T03:08:50;0.60;;;0.60;;
13441;SDS011;6793;55.662;13.114;2024-01-30T03:11:16;0.70;;;0.70;;
13441;SDS011;6793;55.662;13.114;2024-01-30T03:13:45;0.70;;;0.70;;
13441;SDS011;6793;55.662;13.114;2024-01-30T03:16:12;0.60;;;0.60;;
13441;SDS011;6793;55.662;13.114;2024-01-30T03:18:39;0.68;;;0.68;;
13441;SDS011;6793;55.662;13.114;2024-01-30T03:21:06;0.65;;;0.65;;
13441;SDS011;6793;55.662;13.114;2024-01-30T03:23:33;0.65;;;0.65;;
13441;SDS011;6793;55.662;13.114;2024-01-30T03:26:00;0.63;;;0.63;;
13441;SDS011;6793;55.662;13.114;2024-01-30T03:28:29;0.60;;;0.60;;
13441;SDS011;6793;55.662;13.114;2024-01-30T03:30:58;0.60;;;0.60;;
13441;SDS011;6793;55.662;13.114;2024-01-30T03:33:25;0.70;;;0.70;;
13441;SDS011;6793;55.662;13.114;2024-01-30T03:35:53;0.60;;;0.60;;
13441;SDS011;6793;55.662;13.114;2024-01-30T03:38:20;0.50;;;0.50;;
13441;SDS011;6793;55.662;13.114;2024-01-30T03:40:46;0.60;;;0.60;;
13441;SDS011;6793;55.662;13.114;2024-01-30T03:43:13;0.70;;;0.70;;
13441;SDS011;6793;55.662;13.114;2024-01-30T03:45:40;0.60;;;0.60;;
13441;SDS011;6793;55.662;13.114;2024-01-30T03:48:09;0.60;;;0.60;;
13441;SDS011;6793;55.662;13.114;2024-01-30T03:50:36;0.70;;;0.70;;
13441;SDS011;6793;55.662;13.114;2024-01-30T03:53:03;0.60;;;0.60;;
13441;SDS011;6793;55.662;13.114;2024-01-30T03:55:30;0.50;;;0.50;;
13441;SDS011;6793;55.662;13.114;2024-01-30T03:57:57;0.60;;;0.60;;
13441;SDS011;6793;55.662;13.114;2024-01-30T04:00:24;0.60;;;0.60;;
13441;SDS011;6793;55.662;13.114;2024-01-30T04:02:51;0.55;;;0.55;;
13441;SDS011;6793;55.662;13.114;2024-01-30T04:05:20;0.50;;;0.50;;
13441;SDS011;6793;55.662;13.114;2024-01-30T04:07:47;0.55;;;0.55;;
13441;SDS011;6793;55.662;13.114;2024-01-30T04:10:14;0.60;;;0.60;;
13441;SDS011;6793;55.662;13.114;2024-01-30T04:12:41;0.50;;;0.50;;
13441;SDS011;6793;55.662;13.114;2024-01-30T04:15:09;0.50;;;0.50;;
13441;SDS011;6793;55.662;13.114;2024-01-30T04:17:36;0.60;;;0.60;;
13441;SDS011;6793;55.662;13.114;2024-01-30T04:20:04;0.60;;;0.60;;
13441;SDS011;6793;55.662;13.114;2024-01-30T04:22:33;0.50;;;0.50;;
13441;SDS011;6793;55.662;13.114;2024-01-30T04:25:00;0.50;;;0.50;;
13441;SDS011;6793;55.662;13.114;2024-01-30T04:27:28;0.60;;;0.60;;
13441;SDS011;6793;55.662;13.114;2024-01-30T04:29:55;0.50;;;0.50;;
13441;SDS011;6793;55.662;13.114;2024-01-30T04:32:22;0.50;;;0.50;;
13441;SDS011;6793;55.662;13.114;2024-01-30T04:34:49;0.47;;;0.47;;
13441;SDS011;6793;55.662;13.114;2024-01-30T04:37:16;0.50;;;0.50;;
13441;SDS011;6793;55.662;13.114;2024-01-30T04:39:45;0.50;;;0.50;;
13441;SDS011;6793;55.662;13.114;2024-01-30T04:42:12;0.50;;;0.50;;
13441;SDS011;6793;55.662;13.114;2024-01-30T04:44:40;0.50;;;0.50;;
13441;SDS011;6793;55.662;13.114;2024-01-30T04:47:07;0.50;;;0.50;;
13441;SDS011;6793;55.662;13.114;2024-01-30T04:49:36;0.40;;;0.40;;
13441;SDS011;6793;55.662;13.114;2024-01-30T04:52:04;0.50;;;0.50;;
13441;SDS011;6793;55.662;13.114;2024-01-30T04:54:31;0.43;;;0.43;;
13441;SDS011;6793;55.662;13.114;2024-01-30T04:56:59;0.40;;;0.40;;
13441;SDS011;6793;55.662;13.114;2024-01-30T04:59:26;0.40;;;0.40;;
13441;SDS011;6793;55.662;13.114;2024-01-30T05:01:53;0.50;;;0.50;;
13441;SDS011;6793;55.662;13.114;2024-01-30T05:04:21;0.43;;;0.43;;
13441;SDS011;6793;55.662;13.114;2024-01-30T05:06:48;0.40;;;0.40;;
13441;SDS011;6793;55.662;13.114;2024-01-30T05:09:15;0.40;;;0.40;;
13441;SDS011;6793;55.662;13.114;2024-01-30T05:11:45;0.40;;;0.40;;
13441;SDS011;6793;55.662;13.114;2024-01-30T05:14:13;0.40;;;0.40;;
13441;SDS011;6793;55.662;13.114;2024-01-30T05:16:41;0.40;;;0.40;;
13441;SDS011;6793;55.662;13.114;2024-01-30T05:19:11;0.40;;;0.40;;
13441;SDS011;6793;55.662;13.114;2024-01-30T05:21:38;0.40;;;0.40;;
13441;SDS011;6793;55.662;13.114;2024-01-30T05:24:06;0.40;;;0.40;;
13441;SDS011;6793;55.662;13.114;2024-01-30T05:26:34;0.30;;;0.30;;
13441;SDS011;6793;55.662;13.114;2024-01-30T05:29:01;0.40;;;0.40;;
13441;SDS011;6793;55.662;13.114;2024-01-30T05:31:30;0.50;;;0.50;;
13441;SDS011;6793;55.662;13.114;2024-01-30T05:33:57;0.40;;;0.40;;
13441;SDS011;6793;55.662;13.114;2024-01-30T05:36:24;0.40;;;0.40;;
13441;SDS011;6793;55.662;13.114;2024-01-30T05:38:51;0.40;;;0.40;;
13441;SDS011;6793;55.662;13.114;2024-01-30T05:41:19;0.40;;;0.40;;
13441;SDS011;6793;55.662;13.114;2024-01-30T05:43:47;0.40;;;0.40;;
13441;SDS011;6793;55.662;13.114;2024-01-30T05:46:14;0.40;;;0.40;;
13441;SDS011;6793;55.662;13.114;2024-01-30T05:48:42;0.40;;;0.40;;
13441;SDS011;6793;55.662;13.114;2024-01-30T05:51:09;0.40;;;0.40;;
13441;SDS011;6793;55.662;13.114;2024-01-30T05:53:36;0.50;;;0.50;;
13441;SDS011;6793;55.662;13.114;2024-01-30T05:56:03;0.50;;;0.50;;
13441;SDS011;6793;55.662;13.114;2024-01-30T05:58:30;0.50;;;0.50;;
13441;SDS011;6793;55.662;13.114;2024-01-30T06:00:57;0.40;;;0.40;;
13441;SDS011;6793;55.662;13.114;2024-01-30T06:03:25;0.40;;;0.40;;
13441;SDS011;6793;55.662;13.114;2024-01-30T06:05:53;0.40;;;0.40;;
13441;SDS011;6793;55.662;13.114;2024-01-30T06:08:20;0.40;;;0.40;;
13441;SDS011;6793;55.662;13.114;2024-01-30T06:10:47;0.50;;;0.50;;
13441;SDS011;6793;55.662;13.114;2024-01-30T06:13:14;0.40;;;0.40;;
13441;SDS011;6793;55.662;13.114;2024-01-30T06:15:41;0.40;;;0.40;;
13441;SDS011;6793;55.662;13.114;2024-01-30T06:18:08;0.40;;;0.40;;
13441;SDS011;6793;55.662;13.114;2024-01-30T06:20:35;0.40;;;0.40;;
13441;SDS011;6793;55.662;13.114;2024-01-30T06:23:04;0.40;;;0.40;;
13441;SDS011;6793;55.662;13.114;2024-01-30T06:25:31;0.50;;;0.50;;
13441;SDS011;6793;55.662;13.114;2024-01-30T06:28:00;0.47;;;0.47;;
13441;SDS011;6793;55.662;13.114;2024-01-30T06:30:27;0.40;;;0.40;;
13441;SDS011;6793;55.662;13.114;2024-01-30T06:32:54;0.40;;;0.40;;
13441;SDS011;6793;55.662;13.114;2024-01-30T06:35:21;0.32;;;0.32;;
13441;SDS011;6793;55.662;13.114;2024-01-30T06:37:48;0.40;;;0.40;;
13441;SDS011;6793;55.662;13.114;2024-01-30T06:40:17;0.40;;;0.40;;
13441;SDS011;6793;55.662;13.114;2024-01-30T06:42:44;0.30;;;0.30;;
13441;SDS011;6793;55.662;13.114;2024-01-30T06:45:11;0.32;;;0.32;;
13441;SDS011;6793;55.662;13.114;2024-01-30T06:47:38;0.35;;;0.35;;
13441;SDS011;6793;55.662;13.114;2024-01-30T06:50:05;0.40;;;0.40;;
13441;SDS011;6793;55.662;13.114;2024-01-30T06:52:32;0.40;;;0.40;;
13441;SDS011;6793;55.662;13.114;2024-01-30T06:54:59;0.30;;;0.30;;
13441;SDS011;6793;55.662;13.114;2024-01-30T06:57:28;0.40;;;0.40;;
13441;SDS011;6793;55.662;13.114;2024-01-30T06:59:55;0.30;;;0.30;;
13441;SDS011;6793;55.662;13.114;2024-01-30T07:02:22;0.40;;;0.40;;
13441;SDS011;6793;55.662;13.114;2024-01-30T07:04:50;0.30;;;0.30;;
13441;SDS011;6793;55.662;13.114;2024-01-30T07:07:17;0.30;;;0.30;;
13441;SDS011;6793;55.662;13.114;2024-01-30T07:09:44;0.30;;;0.30;;
13441;SDS011;6793;55.662;13.114;2024-01-30T07:12:12;0.30;;;0.30;;
13441;SDS011;6793;55.662;13.114;2024-01-30T07:14:41;0.30;;;0.30;;
13441;SDS011;6793;55.662;13.114;2024-01-30T07:17:08;0.30;;;0.30;;
13441;SDS011;6793;55.662;13.114;2024-01-30T07:19:35;0.40;;;0.40;;
13441;SDS011;6793;55.662;13.114;2024-01-30T07:22:02;0.30;;;0.30;;
13441;SDS011;6793;55.662;13.114;2024-01-30T07:24:29;0.30;;;0.30;;
13441;SDS011;6793;55.662;13.114;2024-01-30T07:26:56;0.30;;;0.30;;
13441;SDS011;6793;55.662;13.114;2024-01-30T07:29:23;0.30;;;0.30;;
13441;SDS011;6793;55.662;13.114;2024-01-30T07:31:52;0.30;;;0.30;;
13441;SDS011;6793;55.662;13.114;2024-01-30T07:34:19;0.30;;;0.30;;
13441;SDS011;6793;55.662;13.114;2024-01-30T07:36:46;0.30;;;0.30;;
13441;SDS011;6793;55.662;13.114;2024-01-30T07:39:13;0.30;;;0.30;;
13441;SDS011;6793;55.662;13.114;2024-01-30T07:41:40;0.25;;;0.25;;
13441;SDS011;6793;55.662;13.114;2024-01-30T07:44:07;0.30;;;0.30;;
13441;SDS011;6793;55.662;13.114;2024-01-30T07:46:34;0.30;;;0.30;;
13441;SDS011;6793;55.662;13.114;2024-01-30T07:49:02;0.30;;;0.30;;
13441;SDS011;6793;55.662;13.114;2024-01-30T07:51:29;0.32;;;0.32;;
13441;SDS011;6793;55.662;13.114;2024-01-30T07:53:58;0.30;;;0.30;;
13441;SDS011;6793;55.662;13.114;2024-01-30T07:56:25;0.20;;;0.20;;
13441;SDS011;6793;55.662;13.114;2024-01-30T07:58:52;0.30;;;0.30;;
13441;SDS011;6793;55.662;13.114;2024-01-30T08:01:19;0.30;;;0.30;;
13441;SDS011;6793;55.662;13.114;2024-01-30T08:03:46;0.30;;;0.30;;
13441;SDS011;6793;55.662;13.114;2024-01-30T08:06:14;0.30;;;0.30;;
13441;SDS011;6793;55.662;13.114;2024-01-30T08:08:41;0.30;;;0.30;;
13441;SDS011;6793;55.662;13.114;2024-01-30T08:11:08;0.30;;;0.30;;
13441;SDS011;6793;55.662;13.114;2024-01-30T08:13:35;0.30;;;0.30;;
13441;SDS011;6793;55.662;13.114;2024-01-30T08:16:02;0.30;;;0.30;;
13441;SDS011;6793;55.662;13.114;2024-01-30T08:18:29;0.30;;;0.30;;
13441;SDS011;6793;55.662;13.114;2024-01-30T08:20:56;0.30;;;0.30;;
13441;SDS011;6793;55.662;13.114;2024-01-30T08:23:25;0.28;;;0.28;;
13441;SDS011;6793;55.662;13.114;2024-01-30T08:25:52;0.30;;;0.30;;
13441;SDS011;6793;55.662;13.114;2024-01-30T08:28:19;0.20;;;0.20;;
13441;SDS011;6793;55.662;13.114;2024-01-30T08:30:46;0.20;;;0.20;;
13441;SDS011;6793;55.662;13.114;2024-01-30T08:33:13;0.20;;;0.20;;
13441;SDS011;6793;55.662;13.114;2024-01-30T08:35:40;0.20;;;0.20;;
13441;SDS011;6793;55.662;13.114;2024-01-30T08:38:07;0.20;;;0.20;;
13441;SDS011;6793;55.662;13.114;2024-01-30T08:40:35;0.20;;;0.20;;
13441;SDS011;6793;55.662;13.114;2024-01-30T08:43:02;0.20;;;0.20;;
13441;SDS011;6793;55.662;13.114;2024-01-30T08:45:30;0.20;;;0.20;;
13441;SDS011;6793;55.662;13.114;2024-01-30T08:47:57;0.20;;;0.20;;
13441;SDS011;6793;55.662;13.114;2024-01-30T08:50:24;0.20;;;0.20;;
13441;SDS011;6793;55.662;13.114;2024-01-30T08:52:51;0.20;;;0.20;;
13441;SDS011;6793;55.662;13.114;2024-01-30T08:55:18;0.20;;;0.20;;
13441;SDS011;6793;55.662;13.114;2024-01-30T08:57:46;0.20;;;0.20;;
13441;SDS011;6793;55.662;13.114;2024-01-30T09:00:13;0.20;;;0.20;;
13441;SDS011;6793;55.662;13.114;2024-01-30T09:02:41;0.20;;;0.20;;
13441;SDS011;6793;55.662;13.114;2024-01-30T09:05:08;0.20;;;0.20;;
13441;SDS011;6793;55.662;13.114;2024-01-30T09:07:35;0.20;;;0.20;;
13441;SDS011;6793;55.662;13.114;2024-01-30T09:10:02;0.20;;;0.20;;
13441;SDS011;6793;55.662;13.114;2024-01-30T09:12:29;0.10;;;0.10;;
13441;SDS011;6793;55.662;13.114;2024-01-30T09:14:58;0.20;;;0.20;;
13441;SDS011;6793;55.662;13.114;2024-01-30T09:17:25;0.13;;;0.13;;
13441;SDS011;6793;55.662;13.114;2024-01-30T09:19:52;0.20;;;0.20;;
13441;SDS011;6793;55.662;13.114;2024-01-30T09:22:19;0.10;;;0.10;;
13441;SDS011;6793;55.662;13.114;2024-01-30T09:24:46;0.10;;;0.10;;
13441;SDS011;6793;55.662;13.114;2024-01-30T09:27:13;0.17;;;0.17;;
13441;SDS011;6793;55.662;13.114;2024-01-30T09:29:40;0.20;;;0.20;;
13441;SDS011;6793;55.662;13.114;2024-01-30T09:32:08;0.17;;;0.17;;
13441;SDS011;6793;55.662;13.114;2024-01-30T09:34:35;0.10;;;0.10;;
13441;SDS011;6793;55.662;13.114;2024-01-30T09:37:04;0.10;;;0.10;;
13441;SDS011;6793;55.662;13.114;2024-01-30T09:39:31;0.10;;;0.10;;
13441;SDS011;6793;55.662;13.114;2024-01-30T09:42:00;0.10;;;0.10;;
13441;SDS011;6793;55.662;13.114;2024-01-30T09:44:29;0.10;;;0.10;;
13441;SDS011;6793;55.662;13.114;2024-01-30T09:46:56;0.10;;;0.10;;
13441;SDS011;6793;55.662;13.114;2024-01-30T09:49:29;0.10;;;0.10;;
13441;SDS011;6793;55.662;13.114;2024-01-30T09:51:57;0.10;;;0.10;;
13441;SDS011;6793;55.662;13.114;2024-01-30T09:54:24;0.10;;;0.10;;
13441;SDS011;6793;55.662;13.114;2024-01-30T09:56:51;0.10;;;0.10;;
13441;SDS011;6793;55.662;13.114;2024-01-30T09:59:18;0.10;;;0.10;;
13441;SDS011;6793;55.662;13.114;2024-01-30T10:01:45;0.10;;;0.10;;
13441;SDS011;6793;55.662;13.114;2024-01-30T10:04:12;0.10;;;0.10;;
13441;SDS011;6793;55.662;13.114;2024-01-30T10:06:41;0.10;;;0.10;;
13441;SDS011;6793;55.662;13.114;2024-01-30T10:09:08;0.10;;;0.10;;
13441;SDS011;6793;55.662;13.114;2024-01-30T10:11:35;0.10;;;0.10;;
13441;SDS011;6793;55.662;13.114;2024-01-30T10:14:02;0.10;;;0.10;;
13441;SDS011;6793;55.662;13.114;2024-01-30T10:16:29;0.10;;;0.10;;
13441;SDS011;6793;55.662;13.114;2024-01-30T10:18:56;0.10;;;0.10;;
13441;SDS011;6793;55.662;13.114;2024-01-30T10:21:23;0.10;;;0.10;;
13441;SDS011;6793;55.662;13.114;2024-01-30T10:23:52;0.10;;;0.10;;
13441;SDS011;6793;55.662;13.114;2024-01-30T10:26:19;0.10;;;0.10;;
13441;SDS011;6793;55.662;13.114;2024-01-30T10:28:46;0.10;;;0.10;;
13441;SDS011;6793;55.662;13.114;2024-01-30T10:31:16;0.10;;;0.10;;
13441;SDS011;6793;55.662;13.114;2024-01-30T10:33:43;0.10;;;0.10;;
13441;SDS011;6793;55.662;13.114;2024-01-30T10:36:10;0.10;;;0.10;;
13441;SDS011;6793;55.662;13.114;2024-01-30T10:38:39;0.10;;;0.10;;
13441;SDS011;6793;55.662;13.114;2024-01-30T10:41:10;0.10;;;0.10;;
13441;SDS011;6793;55.662;13.114;2024-01-30T10:43:40;0.10;;;0.10;;
13441;SDS011;6793;55.662;13.114;2024-01-30T10:46:10;0.08;;;0.08;;
13441;SDS011;6793;55.662;13.114;2024-01-30T10:48:40;0.10;;;0.10;;
13441;SDS011;6793;55.662;13.114;2024-01-30T10:51:09;0.10;;;0.10;;
13441;SDS011;6793;55.662;13.114;2024-01-30T10:53:36;0.10;;;0.10;;
13441;SDS011;6793;55.662;13.114;2024-01-30T10:56:03;0.10;;;0.10;;
13441;SDS011;6793;55.662;13.114;2024-01-30T10:58:32;0.10;;;0.10;;
13441;SDS011;6793;55.662;13.114;2024-01-30T11:00:59;0.10;;;0.10;;
13441;SDS011;6793;55.662;13.114;2024-01-30T11:03:26;0.10;;;0.10;;
13441;SDS011;6793;55.662;13.114;2024-01-30T11:05:54;0.10;;;0.10;;
13441;SDS011;6793;55.662;13.114;2024-01-30T11:08:24;0.10;;;0.10;;
13441;SDS011;6793;55.662;13.114;2024-01-30T11:10:55;0.10;;;0.10;;
13441;SDS011;6793;55.662;13.114;2024-01-30T11:13:26;0.10;;;0.10;;
13441;SDS011;6793;55.662;13.114;2024-01-30T11:15:54;0.10;;;0.10;;
13441;SDS011;6793;55.662;13.114;2024-01-30T11:18:25;0.10;;;0.10;;
13441;SDS011;6793;55.662;13.114;2024-01-30T11:20:52;0.10;;;0.10;;
13441;SDS011;6793;55.662;13.114;2024-01-30T11:23:21;0.10;;;0.10;;
13441;SDS011;6793;55.662;13.114;2024-01-30T11:25:49;0.10;;;0.10;;
13441;SDS011;6793;55.662;13.114;2024-01-30T11:28:16;0.10;;;0.10;;
13441;SDS011;6793;55.662;13.114;2024-01-30T11:30:43;0.10;;;0.10;;
13441;SDS011;6793;55.662;13.114;2024-01-30T11:33:14;0.10;;;0.10;;
13441;SDS011;6793;55.662;13.114;2024-01-30T11:35:42;0.10;;;0.10;;
13441;SDS011;6793;55.662;13.114;2024-01-30T11:38:09;0.10;;;0.10;;
13441;SDS011;6793;55.662;13.114;2024-01-30T11:40:37;0.10;;;0.10;;
13441;SDS011;6793;55.662;13.114;2024-01-30T11:43:05;0.10;;;0.10;;
13441;SDS011;6793;55.662;13.114;2024-01-30T11:45:32;0.10;;;0.10;;
13441;SDS011;6793;55.662;13.114;2024-01-30T11:47:59;0.10;;;0.10;;
13441;SDS011;6793;55.662;13.114;2024-01-30T11:50:29;0.10;;;0.10;;
13441;SDS011;6793;55.662;13.114;2024-01-30T11:52:57;0.10;;;0.10;;
13441;SDS011;6793;55.662;13.114;2024-01-30T11:55:24;0.10;;;0.10;;
13441;SDS011;6793;55.662;13.114;2024-01-30T11:57:54;0.10;;;0.10;;
13441;SDS011;6793;55.662;13.114;2024-01-30T12:00:21;0.10;;;0.10;;
13441;SDS011;6793;55.662;13.114;2024-01-30T12:02:48;0.10;;;0.10;;
13441;SDS011;6793;55.662;13.114;2024-01-30T12:05:16;0.10;;;0.10;;
13441;SDS011;6793;55.662;13.114;2024-01-30T12:07:45;0.00;;;0.00;;
13441;SDS011;6793;55.662;13.114;2024-01-30T12:10:12;0.10;;;0.10;;
13441;SDS011;6793;55.662;13.114;2024-01-30T12:12:40;0.10;;;0.10;;
13441;SDS011;6793;55.662;13.114;2024-01-30T12:15:08;0.10;;;0.10;;
13441;SDS011;6793;55.662;13.114;2024-01-30T12:17:35;0.10;;;0.10;;
13441;SDS011;6793;55.662;13.114;2024-01-30T12:20:03;0.10;;;0.10;;
13441;SDS011;6793;55.662;13.114;2024-01-30T12:22:31;0.00;;;0.00;;
13441;SDS011;6793;55.662;13.114;2024-01-30T12:25:00;0.10;;;0.10;;
13441;SDS011;6793;55.662;13.114;2024-01-30T12:27:27;0.10;;;0.10;;
13441;SDS011;6793;55.662;13.114;2024-01-30T12:29:57;0.10;;;0.10;;
13441;SDS011;6793;55.662;13.114;2024-01-30T12:32:24;0.10;;;0.10;;
13441;SDS011;6793;55.662;13.114;2024-01-30T12:34:54;0.10;;;0.10;;
13441;SDS011;6793;55.662;13.114;2024-01-30T12:37:21;0.10;;;0.10;;
13441;SDS011;6793;55.662;13.114;2024-01-30T12:39:49;0.10;;;0.10;;
13441;SDS011;6793;55.662;13.114;2024-01-30T12:42:18;0.00;;;0.00;;
13441;SDS011;6793;55.662;13.114;2024-01-30T12:44:46;0.10;;;0.10;;
13441;SDS011;6793;55.662;13.114;2024-01-30T12:47:14;0.10;;;0.10;;
13441;SDS011;6793;55.662;13.114;2024-01-30T12:49:41;0.10;;;0.10;;
13441;SDS011;6793;55.662;13.114;2024-01-30T12:52:09;0.10;;;0.10;;
13441;SDS011;6793;55.662;13.114;2024-01-30T12:54:36;0.10;;;0.10;;
13441;SDS011;6793;55.662;13.114;2024-01-30T12:57:04;0.10;;;0.10;;
13441;SDS011;6793;55.662;13.114;2024-01-30T12:59:32;0.10;;;0.10;;
13441;SDS011;6793;55.662;13.114;2024-01-30T13:01:59;0.10;;;0.10;;
13441;SDS011;6793;55.662;13.114;2024-01-30T13:04:28;0.10;;;0.10;;
13441;SDS011;6793;55.662;13.114;2024-01-30T13:06:55;0.10;;;0.10;;
13441;SDS011;6793;55.662;13.114;2024-01-30T13:09:22;0.10;;;0.10;;
13441;SDS011;6793;55.662;13.114;2024-01-30T13:11:49;0.10;;;0.10;;
13441;SDS011;6793;55.662;13.114;2024-01-30T13:14:16;0.10;;;0.10;;
13441;SDS011;6793;55.662;13.114;2024-01-30T13:16:45;0.10;;;0.10;;
13441;SDS011;6793;55.662;13.114;2024-01-30T13:19:12;0.10;;;0.10;;
13441;SDS011;6793;55.662;13.114;2024-01-30T13:21:39;0.10;;;0.10;;
13441;SDS011;6793;55.662;13.114;2024-01-30T13:24:06;0.10;;;0.10;;
13441;SDS011;6793;55.662;13.114;2024-01-30T13:26:33;0.10;;;0.10;;
13441;SDS011;6793;55.662;13.114;2024-01-30T13:29:00;0.10;;;0.10;;
13441;SDS011;6793;55.662;13.114;2024-01-30T13:31:27;0.10;;;0.10;;
13441;SDS011;6793;55.662;13.114;2024-01-30T13:33:56;0.10;;;0.10;;
13441;SDS011;6793;55.662;13.114;2024-01-30T13:36:23;0.10;;;0.10;;
13441;SDS011;6793;55.662;13.114;2024-01-30T13:38:50;0.10;;;0.10;;
13441;SDS011;6793;55.662;13.114;2024-01-30T13:41:17;0.10;;;0.10;;
13441;SDS011;6793;55.662;13.114;2024-01-30T13:43:45;0.10;;;0.10;;
13441;SDS011;6793;55.662;13.114;2024-01-30T13:46:12;0.10;;;0.10;;
13441;SDS011;6793;55.662;13.114;2024-01-30T13:48:40;0.10;;;0.10;;
13441;SDS011;6793;55.662;13.114;2024-01-30T13:51:08;0.10;;;0.10;;
13441;SDS011;6793;55.662;13.114;2024-01-30T13:53:36;0.10;;;0.10;;
13441;SDS011;6793;55.662;13.114;2024-01-30T13:56:03;0.10;;;0.10;;
13441;SDS011;6793;55.662;13.114;2024-01-30T13:58:31;0.10;;;0.10;;
13441;SDS011;6793;55.662;13.114;2024-01-30T14:00:59;0.10;;;0.10;;
13441;SDS011;6793;55.662;13.114;2024-01-30T14:03:26;0.10;;;0.10;;
13441;SDS011;6793;55.662;13.114;2024-01-30T14:05:53;0.10;;;0.10;;
13441;SDS011;6793;55.662;13.114;2024-01-30T14:08:22;0.10;;;0.10;;
13441;SDS011;6793;55.662;13.114;2024-01-30T14:10:53;0.10;;;0.10;;
13441;SDS011;6793;55.662;13.114;2024-01-30T14:13:20;0.10;;;0.10;;
13441;SDS011;6793;55.662;13.114;2024-01-30T14:15:47;0.17;;;0.17;;
13441;SDS011;6793;55.662;13.114;2024-01-30T14:18:15;0.10;;;0.10;;
13441;SDS011;6793;55.662;13.114;2024-01-30T14:20:42;0.10;;;0.10;;
13441;SDS011;6793;55.662;13.114;2024-01-30T14:23:09;0.10;;;0.10;;
13441;SDS011;6793;55.662;13.114;2024-01-30T14:25:37;0.10;;;0.10;;
13441;SDS011;6793;55.662;13.114;2024-01-30T14:28:05;0.10;;;0.10;;
13441;SDS011;6793;55.662;13.114;2024-01-30T14:30:32;0.10;;;0.10;;
13441;SDS011;6793;55.662;13.114;2024-01-30T14:32:59;0.10;;;0.10;;
13441;SDS011;6793;55.662;13.114;2024-01-30T14:35:26;0.10;;;0.10;;
13441;SDS011;6793;55.662;13.114;2024-01-30T14:37:53;0.10;;;0.10;;
13441;SDS011;6793;55.662;13.114;2024-01-30T14:40:20;0.10;;;0.10;;
13441;SDS011;6793;55.662;13.114;2024-01-30T14:42:48;0.10;;;0.10;;
13441;SDS011;6793;55.662;13.114;2024-01-30T14:45:15;0.10;;;0.10;;
13441;SDS011;6793;55.662;13.114;2024-01-30T14:47:42;0.20;;;0.20;;
13441;SDS011;6793;55.662;13.114;2024-01-30T14:50:09;0.20;;;0.20;;